sensor_id;sensor_type;location;lat;lon;timestamp;P1;durP1;ratioP1;P2;durP2;ratioP2
7965;SDS011;4028;43.272;26.932;2022-12-08T00:01:26;22.23;;;17.30;;
7965;SDS011;4028;43.272;26.932;2022-12-08T00:03:53;23.70;;;18.23;;
7965;SDS011;4028;43.272;26.932;2022-12-08T00:06:21;29.97;;;19.33;;
7965;SDS011;4028;43.272;26.932;2022-12-08T00:09:16;25.53;;;19.20;;
7965;SDS011;4028;43.272;26.932;2022-12-08T00:11:48;27.37;;;20.60;;
7965;SDS011;4028;43.272;26.932;2022-12-08T00:14:15;27.07;;;21.20;;
7965;SDS011;4028;43.272;26.932;2022-12-08T00:16:40;29.10;;;21.13;;
7965;SDS011;4028;43.272;26.932;2022-12-08T00:19:06;27.27;;;21.87;;
7965;SDS011;4028;43.272;26.932;2022-12-08T00:21:31;24.57;;;19.40;;
7965;SDS011;4028;43.272;26.932;2022-12-08T00:23:57;31.90;;;21.97;;
7965;SDS011;4028;43.272;26.932;2022-12-08T00:26:22;30.20;;;20.57;;
7965;SDS011;4028;43.272;26.932;2022-12-08T00:28:48;27.33;;;20.17;;
7965;SDS011;4028;43.272;26.932;2022-12-08T00:31:13;31.63;;;19.87;;
7965;SDS011;4028;43.272;26.932;2022-12-08T00:33:39;29.63;;;21.07;;
7965;SDS011;4028;43.272;26.932;2022-12-08T00:36:08;27.00;;;20.03;;
7965;SDS011;4028;43.272;26.932;2022-12-08T00:38:35;27.30;;;20.63;;
7965;SDS011;4028;43.272;26.932;2022-12-08T00:41:02;27.93;;;21.50;;
7965;SDS011;4028;43.272;26.932;2022-12-08T00:43:31;29.97;;;22.20;;
7965;SDS011;4028;43.272;26.932;2022-12-08T00:45:56;26.90;;;21.00;;
7965;SDS011;4028;43.272;26.932;2022-12-08T00:48:22;24.90;;;19.30;;
7965;SDS011;4028;43.272;26.932;2022-12-08T00:50:47;25.33;;;20.27;;
7965;SDS011;4028;43.272;26.932;2022-12-08T00:53:13;26.87;;;19.20;;
7965;SDS011;4028;43.272;26.932;2022-12-08T00:55:38;24.77;;;19.60;;
7965;SDS011;4028;43.272;26.932;2022-12-08T00:58:03;27.43;;;17.67;;
7965;SDS011;4028;43.272;26.932;2022-12-08T01:00:29;21.87;;;17.17;;
7965;SDS011;4028;43.272;26.932;2022-12-08T01:02:54;23.70;;;18.37;;
7965;SDS011;4028;43.272;26.932;2022-12-08T01:05:20;26.23;;;18.63;;
7965;SDS011;4028;43.272;26.932;2022-12-08T01:07:45;33.47;;;22.20;;
7965;SDS011;4028;43.272;26.932;2022-12-08T01:10:13;26.40;;;20.63;;
7965;SDS011;4028;43.272;26.932;2022-12-08T01:12:39;28.00;;;22.20;;
7965;SDS011;4028;43.272;26.932;2022-12-08T01:15:04;23.00;;;16.47;;
7965;SDS011;4028;43.272;26.932;2022-12-08T01:17:30;23.53;;;16.23;;
7965;SDS011;4028;43.272;26.932;2022-12-08T01:19:55;17.27;;;15.40;;
7965;SDS011;4028;43.272;26.932;2022-12-08T01:22:21;19.27;;;14.37;;
7965;SDS011;4028;43.272;26.932;2022-12-08T01:24:46;22.00;;;14.77;;
7965;SDS011;4028;43.272;26.932;2022-12-08T01:27:14;18.53;;;15.33;;
7965;SDS011;4028;43.272;26.932;2022-12-08T01:29:40;19.10;;;14.43;;
7965;SDS011;4028;43.272;26.932;2022-12-08T01:32:06;18.17;;;13.73;;
7965;SDS011;4028;43.272;26.932;2022-12-08T01:34:33;20.03;;;14.63;;
7965;SDS011;4028;43.272;26.932;2022-12-08T01:36:58;19.43;;;13.67;;
7965;SDS011;4028;43.272;26.932;2022-12-08T01:39:24;18.33;;;14.83;;
7965;SDS011;4028;43.272;26.932;2022-12-08T01:41:50;20.20;;;14.23;;
7965;SDS011;4028;43.272;26.932;2022-12-08T01:46:42;21.43;;;14.80;;
7965;SDS011;4028;43.272;26.932;2022-12-08T01:54:15;15.50;;;12.97;;
7965;SDS011;4028;43.272;26.932;2022-12-08T01:56:43;19.20;;;13.63;;
7965;SDS011;4028;43.272;26.932;2022-12-08T01:59:14;20.70;;;13.83;;
7965;SDS011;4028;43.272;26.932;2022-12-08T02:01:41;20.87;;;13.43;;
7965;SDS011;4028;43.272;26.932;2022-12-08T02:04:06;18.83;;;14.00;;
7965;SDS011;4028;43.272;26.932;2022-12-08T02:06:35;17.30;;;12.97;;
7965;SDS011;4028;43.272;26.932;2022-12-08T02:09:03;15.57;;;13.60;;
7965;SDS011;4028;43.272;26.932;2022-12-08T02:11:30;19.50;;;12.63;;
7965;SDS011;4028;43.272;26.932;2022-12-08T02:13:56;17.70;;;13.07;;
7965;SDS011;4028;43.272;26.932;2022-12-08T02:22:11;26.57;;;18.50;;
7965;SDS011;4028;43.272;26.932;2022-12-08T02:30:55;18.73;;;13.07;;
7965;SDS011;4028;43.272;26.932;2022-12-08T02:42:18;16.20;;;13.10;;
7965;SDS011;4028;43.272;26.932;2022-12-08T02:44:53;20.90;;;13.70;;
7965;SDS011;4028;43.272;26.932;2022-12-08T02:47:24;19.97;;;13.73;;
7965;SDS011;4028;43.272;26.932;2022-12-08T02:49:53;20.57;;;15.10;;
7965;SDS011;4028;43.272;26.932;2022-12-08T02:54:46;23.53;;;17.07;;
7965;SDS011;4028;43.272;26.932;2022-12-08T03:00:19;17.50;;;14.50;;
7965;SDS011;4028;43.272;26.932;2022-12-08T03:05:56;22.23;;;15.90;;
7965;SDS011;4028;43.272;26.932;2022-12-08T03:08:21;19.30;;;15.37;;
7965;SDS011;4028;43.272;26.932;2022-12-08T03:10:51;24.13;;;15.40;;
7965;SDS011;4028;43.272;26.932;2022-12-08T03:13:33;20.97;;;15.80;;
7965;SDS011;4028;43.272;26.932;2022-12-08T03:16:06;20.90;;;15.33;;
7965;SDS011;4028;43.272;26.932;2022-12-08T03:18:35;20.13;;;13.40;;
7965;SDS011;4028;43.272;26.932;2022-12-08T03:21:04;20.13;;;14.03;;
7965;SDS011;4028;43.272;26.932;2022-12-08T03:23:31;21.97;;;13.73;;
7965;SDS011;4028;43.272;26.932;2022-12-08T03:26:04;18.10;;;13.50;;
7965;SDS011;4028;43.272;26.932;2022-12-08T03:28:37;20.07;;;13.60;;
7965;SDS011;4028;43.272;26.932;2022-12-08T03:31:04;17.87;;;13.30;;
7965;SDS011;4028;43.272;26.932;2022-12-08T03:33:35;20.37;;;13.27;;
7965;SDS011;4028;43.272;26.932;2022-12-08T03:36:04;18.43;;;13.73;;
7965;SDS011;4028;43.272;26.932;2022-12-08T03:38:39;19.77;;;14.30;;
7965;SDS011;4028;43.272;26.932;2022-12-08T03:41:06;16.70;;;14.03;;
7965;SDS011;4028;43.272;26.932;2022-12-08T03:43:45;22.70;;;16.37;;
7965;SDS011;4028;43.272;26.932;2022-12-08T03:46:12;33.57;;;21.80;;
7965;SDS011;4028;43.272;26.932;2022-12-08T03:48:39;29.17;;;20.70;;
7965;SDS011;4028;43.272;26.932;2022-12-08T03:51:04;36.93;;;22.80;;
7965;SDS011;4028;43.272;26.932;2022-12-08T03:53:30;34.27;;;22.73;;
7965;SDS011;4028;43.272;26.932;2022-12-08T03:55:55;304.20;;;29.33;;
7965;SDS011;4028;43.272;26.932;2022-12-08T03:58:21;334.73;;;31.80;;
7965;SDS011;4028;43.272;26.932;2022-12-08T04:00:46;93.17;;;26.83;;
7965;SDS011;4028;43.272;26.932;2022-12-08T04:03:11;124.67;;;26.57;;
7965;SDS011;4028;43.272;26.932;2022-12-08T04:05:37;79.00;;;27.87;;
7965;SDS011;4028;43.272;26.932;2022-12-08T04:08:03;80.63;;;25.63;;
7965;SDS011;4028;43.272;26.932;2022-12-08T04:10:28;227.43;;;28.33;;
7965;SDS011;4028;43.272;26.932;2022-12-08T04:12:55;281.13;;;28.03;;
7965;SDS011;4028;43.272;26.932;2022-12-08T04:15:20;319.87;;;29.73;;
7965;SDS011;4028;43.272;26.932;2022-12-08T04:17:46;179.03;;;24.57;;
7965;SDS011;4028;43.272;26.932;2022-12-08T04:20:11;290.30;;;30.80;;
7965;SDS011;4028;43.272;26.932;2022-12-08T04:22:37;294.30;;;27.70;;
7965;SDS011;4028;43.272;26.932;2022-12-08T04:25:02;110.30;;;24.77;;
7965;SDS011;4028;43.272;26.932;2022-12-08T04:27:28;251.50;;;26.97;;
7965;SDS011;4028;43.272;26.932;2022-12-08T04:29:54;60.03;;;20.37;;
7965;SDS011;4028;43.272;26.932;2022-12-08T04:32:19;111.30;;;21.27;;
7965;SDS011;4028;43.272;26.932;2022-12-08T04:34:44;46.07;;;19.23;;
7965;SDS011;4028;43.272;26.932;2022-12-08T04:37:10;78.97;;;20.63;;
7965;SDS011;4028;43.272;26.932;2022-12-08T04:39:35;144.50;;;21.37;;
7965;SDS011;4028;43.272;26.932;2022-12-08T04:42:01;111.80;;;20.47;;
7965;SDS011;4028;43.272;26.932;2022-12-08T04:44:26;136.83;;;23.03;;
7965;SDS011;4028;43.272;26.932;2022-12-08T04:46:52;139.70;;;22.30;;
7965;SDS011;4028;43.272;26.932;2022-12-08T04:49:17;187.77;;;23.07;;
7965;SDS011;4028;43.272;26.932;2022-12-08T04:51:43;139.83;;;23.10;;
7965;SDS011;4028;43.272;26.932;2022-12-08T04:54:08;67.53;;;21.83;;
7965;SDS011;4028;43.272;26.932;2022-12-08T04:56:34;145.70;;;23.10;;
7965;SDS011;4028;43.272;26.932;2022-12-08T04:58:59;101.90;;;22.27;;
7965;SDS011;4028;43.272;26.932;2022-12-08T05:01:24;88.43;;;23.07;;
7965;SDS011;4028;43.272;26.932;2022-12-08T05:03:50;83.43;;;22.63;;
7965;SDS011;4028;43.272;26.932;2022-12-08T05:06:15;88.93;;;23.00;;
7965;SDS011;4028;43.272;26.932;2022-12-08T05:08:41;68.13;;;21.93;;
7965;SDS011;4028;43.272;26.932;2022-12-08T05:11:08;83.90;;;24.73;;
7965;SDS011;4028;43.272;26.932;2022-12-08T05:13:35;95.07;;;23.43;;
7965;SDS011;4028;43.272;26.932;2022-12-08T05:16:04;189.97;;;25.10;;
7965;SDS011;4028;43.272;26.932;2022-12-08T05:18:31;118.30;;;24.23;;
7965;SDS011;4028;43.272;26.932;2022-12-08T05:20:57;59.60;;;21.60;;
7965;SDS011;4028;43.272;26.932;2022-12-08T05:23:22;113.07;;;25.40;;
7965;SDS011;4028;43.272;26.932;2022-12-08T05:25:48;85.90;;;26.93;;
7965;SDS011;4028;43.272;26.932;2022-12-08T05:28:13;150.03;;;28.07;;
7965;SDS011;4028;43.272;26.932;2022-12-08T05:30:39;159.17;;;27.77;;
7965;SDS011;4028;43.272;26.932;2022-12-08T05:33:04;153.53;;;27.50;;
7965;SDS011;4028;43.272;26.932;2022-12-08T05:35:30;70.10;;;26.27;;
7965;SDS011;4028;43.272;26.932;2022-12-08T05:37:55;161.83;;;25.73;;
7965;SDS011;4028;43.272;26.932;2022-12-08T05:40:20;85.27;;;25.83;;
7965;SDS011;4028;43.272;26.932;2022-12-08T05:42:46;117.83;;;27.10;;
7965;SDS011;4028;43.272;26.932;2022-12-08T05:45:11;92.20;;;23.97;;
7965;SDS011;4028;43.272;26.932;2022-12-08T05:47:37;80.47;;;26.40;;
7965;SDS011;4028;43.272;26.932;2022-12-08T05:50:03;117.53;;;24.13;;
7965;SDS011;4028;43.272;26.932;2022-12-08T05:52:29;67.57;;;23.47;;
7965;SDS011;4028;43.272;26.932;2022-12-08T05:54:55;75.47;;;24.67;;
7965;SDS011;4028;43.272;26.932;2022-12-08T05:57:21;106.80;;;27.30;;
7965;SDS011;4028;43.272;26.932;2022-12-08T05:59:46;140.03;;;26.37;;
7965;SDS011;4028;43.272;26.932;2022-12-08T06:02:11;124.60;;;25.90;;
7965;SDS011;4028;43.272;26.932;2022-12-08T06:04:37;67.53;;;23.23;;
7965;SDS011;4028;43.272;26.932;2022-12-08T06:07:03;163.83;;;25.20;;
7965;SDS011;4028;43.272;26.932;2022-12-08T06:09:28;143.57;;;24.70;;
7965;SDS011;4028;43.272;26.932;2022-12-08T06:11:54;106.33;;;23.20;;
7965;SDS011;4028;43.272;26.932;2022-12-08T06:14:19;99.77;;;22.43;;
7965;SDS011;4028;43.272;26.932;2022-12-08T06:16:45;149.07;;;26.07;;
7965;SDS011;4028;43.272;26.932;2022-12-08T06:19:10;111.63;;;24.33;;
7965;SDS011;4028;43.272;26.932;2022-12-08T06:21:35;132.10;;;28.63;;
7965;SDS011;4028;43.272;26.932;2022-12-08T06:24:01;79.13;;;27.23;;
7965;SDS011;4028;43.272;26.932;2022-12-08T06:26:26;66.37;;;27.27;;
7965;SDS011;4028;43.272;26.932;2022-12-08T06:28:52;77.80;;;30.07;;
7965;SDS011;4028;43.272;26.932;2022-12-08T06:31:22;96.00;;;31.97;;
7965;SDS011;4028;43.272;26.932;2022-12-08T06:33:49;59.70;;;29.10;;
7965;SDS011;4028;43.272;26.932;2022-12-08T06:36:15;76.67;;;27.40;;
7965;SDS011;4028;43.272;26.932;2022-12-08T06:38:43;79.70;;;25.80;;
7965;SDS011;4028;43.272;26.932;2022-12-08T06:41:08;105.80;;;25.70;;
7965;SDS011;4028;43.272;26.932;2022-12-08T06:43:34;92.13;;;26.63;;
7965;SDS011;4028;43.272;26.932;2022-12-08T06:45:59;67.57;;;26.13;;
7965;SDS011;4028;43.272;26.932;2022-12-08T06:48:25;49.30;;;25.03;;
7965;SDS011;4028;43.272;26.932;2022-12-08T06:50:51;60.87;;;25.17;;
7965;SDS011;4028;43.272;26.932;2022-12-08T06:53:16;65.40;;;25.77;;
7965;SDS011;4028;43.272;26.932;2022-12-08T06:55:43;77.50;;;28.70;;
7965;SDS011;4028;43.272;26.932;2022-12-08T06:58:09;69.20;;;27.40;;
7965;SDS011;4028;43.272;26.932;2022-12-08T07:00:35;59.07;;;26.63;;
7965;SDS011;4028;43.272;26.932;2022-12-08T07:03:01;51.60;;;26.80;;
7965;SDS011;4028;43.272;26.932;2022-12-08T07:05:26;57.73;;;26.57;;
7965;SDS011;4028;43.272;26.932;2022-12-08T07:07:51;52.70;;;25.60;;
7965;SDS011;4028;43.272;26.932;2022-12-08T07:10:17;73.33;;;28.73;;
7965;SDS011;4028;43.272;26.932;2022-12-08T07:12:43;61.20;;;27.13;;
7965;SDS011;4028;43.272;26.932;2022-12-08T07:15:09;69.90;;;28.63;;
7965;SDS011;4028;43.272;26.932;2022-12-08T07:17:35;47.97;;;26.73;;
7965;SDS011;4028;43.272;26.932;2022-12-08T07:20:00;84.10;;;26.20;;
7965;SDS011;4028;43.272;26.932;2022-12-08T07:22:26;93.33;;;34.60;;
7965;SDS011;4028;43.272;26.932;2022-12-08T07:24:51;57.33;;;29.47;;
7965;SDS011;4028;43.272;26.932;2022-12-08T07:27:16;67.00;;;30.13;;
7965;SDS011;4028;43.272;26.932;2022-12-08T07:29:42;60.33;;;26.57;;
7965;SDS011;4028;43.272;26.932;2022-12-08T07:32:07;66.50;;;25.77;;
7965;SDS011;4028;43.272;26.932;2022-12-08T07:34:33;79.07;;;22.83;;
7965;SDS011;4028;43.272;26.932;2022-12-08T07:36:58;68.93;;;23.07;;
7965;SDS011;4028;43.272;26.932;2022-12-08T07:39:24;55.43;;;22.63;;
7965;SDS011;4028;43.272;26.932;2022-12-08T07:41:49;50.37;;;22.17;;
7965;SDS011;4028;43.272;26.932;2022-12-08T07:44:15;65.47;;;25.27;;
7965;SDS011;4028;43.272;26.932;2022-12-08T07:46:41;73.93;;;27.90;;
7965;SDS011;4028;43.272;26.932;2022-12-08T07:49:06;89.63;;;29.17;;
7965;SDS011;4028;43.272;26.932;2022-12-08T07:51:31;54.50;;;30.13;;
7965;SDS011;4028;43.272;26.932;2022-12-08T07:53:57;60.77;;;30.67;;
7965;SDS011;4028;43.272;26.932;2022-12-08T07:56:22;77.10;;;30.93;;
7965;SDS011;4028;43.272;26.932;2022-12-08T07:58:48;69.90;;;30.07;;
7965;SDS011;4028;43.272;26.932;2022-12-08T08:01:24;65.87;;;28.83;;
7965;SDS011;4028;43.272;26.932;2022-12-08T08:03:51;90.73;;;34.70;;
7965;SDS011;4028;43.272;26.932;2022-12-08T08:06:18;67.67;;;33.70;;
7965;SDS011;4028;43.272;26.932;2022-12-08T08:08:44;73.87;;;33.03;;
7965;SDS011;4028;43.272;26.932;2022-12-08T08:11:10;75.53;;;34.00;;
7965;SDS011;4028;43.272;26.932;2022-12-08T08:13:35;64.70;;;33.37;;
7965;SDS011;4028;43.272;26.932;2022-12-08T08:16:02;57.40;;;30.73;;
7965;SDS011;4028;43.272;26.932;2022-12-08T08:18:32;65.50;;;31.90;;
7965;SDS011;4028;43.272;26.932;2022-12-08T08:20:58;63.07;;;30.87;;
7965;SDS011;4028;43.272;26.932;2022-12-08T08:23:23;53.17;;;29.27;;
7965;SDS011;4028;43.272;26.932;2022-12-08T08:25:49;54.90;;;27.60;;
7965;SDS011;4028;43.272;26.932;2022-12-08T08:28:14;61.50;;;26.87;;
7965;SDS011;4028;43.272;26.932;2022-12-08T08:30:40;53.10;;;25.87;;
7965;SDS011;4028;43.272;26.932;2022-12-08T08:33:06;59.50;;;28.10;;
7965;SDS011;4028;43.272;26.932;2022-12-08T08:35:32;50.13;;;25.17;;
7965;SDS011;4028;43.272;26.932;2022-12-08T08:37:58;50.37;;;25.43;;
7965;SDS011;4028;43.272;26.932;2022-12-08T08:40:25;43.83;;;24.67;;
7965;SDS011;4028;43.272;26.932;2022-12-08T08:42:50;62.47;;;27.40;;
7965;SDS011;4028;43.272;26.932;2022-12-08T08:45:16;58.30;;;28.43;;
7965;SDS011;4028;43.272;26.932;2022-12-08T08:47:41;47.17;;;26.80;;
7965;SDS011;4028;43.272;26.932;2022-12-08T08:50:07;57.00;;;28.63;;
7965;SDS011;4028;43.272;26.932;2022-12-08T08:52:32;54.50;;;26.73;;
7965;SDS011;4028;43.272;26.932;2022-12-08T08:54:58;52.37;;;26.90;;
7965;SDS011;4028;43.272;26.932;2022-12-08T08:57:23;44.50;;;24.20;;
7965;SDS011;4028;43.272;26.932;2022-12-08T08:59:49;37.57;;;24.27;;
7965;SDS011;4028;43.272;26.932;2022-12-08T09:02:15;55.27;;;24.37;;
7965;SDS011;4028;43.272;26.932;2022-12-08T09:04:42;47.30;;;26.37;;
7965;SDS011;4028;43.272;26.932;2022-12-08T09:07:08;42.47;;;24.87;;
7965;SDS011;4028;43.272;26.932;2022-12-08T09:09:33;48.07;;;26.17;;
7965;SDS011;4028;43.272;26.932;2022-12-08T09:11:59;45.93;;;25.00;;
7965;SDS011;4028;43.272;26.932;2022-12-08T09:14:24;55.60;;;28.10;;
7965;SDS011;4028;43.272;26.932;2022-12-08T09:16:50;52.07;;;28.30;;
7965;SDS011;4028;43.272;26.932;2022-12-08T09:19:16;61.83;;;29.30;;
7965;SDS011;4028;43.272;26.932;2022-12-08T09:21:41;55.43;;;30.63;;
7965;SDS011;4028;43.272;26.932;2022-12-08T09:24:07;53.40;;;31.00;;
7965;SDS011;4028;43.272;26.932;2022-12-08T09:26:39;55.33;;;31.37;;
7965;SDS011;4028;43.272;26.932;2022-12-08T09:29:05;59.23;;;34.97;;
7965;SDS011;4028;43.272;26.932;2022-12-08T09:31:31;71.47;;;35.53;;
7965;SDS011;4028;43.272;26.932;2022-12-08T09:33:57;61.13;;;33.93;;
7965;SDS011;4028;43.272;26.932;2022-12-08T09:36:23;61.33;;;33.40;;
7965;SDS011;4028;43.272;26.932;2022-12-08T09:38:48;61.77;;;35.30;;
7965;SDS011;4028;43.272;26.932;2022-12-08T09:47:20;52.10;;;30.07;;
7965;SDS011;4028;43.272;26.932;2022-12-08T09:52:46;63.00;;;32.17;;
7965;SDS011;4028;43.272;26.932;2022-12-08T09:58:13;55.70;;;31.10;;
7965;SDS011;4028;43.272;26.932;2022-12-08T10:00:44;84.30;;;30.17;;
7965;SDS011;4028;43.272;26.932;2022-12-08T10:03:10;59.97;;;30.20;;
7965;SDS011;4028;43.272;26.932;2022-12-08T10:05:38;49.00;;;28.97;;
7965;SDS011;4028;43.272;26.932;2022-12-08T10:08:12;50.97;;;26.83;;
7965;SDS011;4028;43.272;26.932;2022-12-08T10:13:35;45.93;;;27.30;;
7965;SDS011;4028;43.272;26.932;2022-12-08T10:19:21;50.63;;;28.27;;
7965;SDS011;4028;43.272;26.932;2022-12-08T10:21:50;53.43;;;28.37;;
7965;SDS011;4028;43.272;26.932;2022-12-08T10:24:36;46.63;;;28.20;;
7965;SDS011;4028;43.272;26.932;2022-12-08T10:27:09;48.70;;;25.83;;
7965;SDS011;4028;43.272;26.932;2022-12-08T10:29:36;47.13;;;27.77;;
7965;SDS011;4028;43.272;26.932;2022-12-08T10:32:08;47.03;;;26.83;;
7965;SDS011;4028;43.272;26.932;2022-12-08T10:35:00;41.47;;;26.97;;
7965;SDS011;4028;43.272;26.932;2022-12-08T10:37:33;46.43;;;26.27;;
7965;SDS011;4028;43.272;26.932;2022-12-08T10:42:31;39.67;;;23.67;;
7965;SDS011;4028;43.272;26.932;2022-12-08T10:45:02;35.57;;;23.60;;
7965;SDS011;4028;43.272;26.932;2022-12-08T10:47:59;44.43;;;25.77;;
7965;SDS011;4028;43.272;26.932;2022-12-08T10:53:01;52.30;;;28.50;;
7965;SDS011;4028;43.272;26.932;2022-12-08T10:58:39;36.83;;;23.30;;
7965;SDS011;4028;43.272;26.932;2022-12-08T11:01:24;36.80;;;23.63;;
7965;SDS011;4028;43.272;26.932;2022-12-08T11:03:54;54.37;;;28.80;;
7965;SDS011;4028;43.272;26.932;2022-12-08T11:06:25;42.20;;;26.90;;
7965;SDS011;4028;43.272;26.932;2022-12-08T11:08:57;48.20;;;25.37;;
7965;SDS011;4028;43.272;26.932;2022-12-08T11:14:16;43.53;;;26.13;;
7965;SDS011;4028;43.272;26.932;2022-12-08T11:16:43;44.73;;;27.33;;
7965;SDS011;4028;43.272;26.932;2022-12-08T11:19:11;44.30;;;26.63;;
7965;SDS011;4028;43.272;26.932;2022-12-08T11:21:40;48.37;;;29.23;;
7965;SDS011;4028;43.272;26.932;2022-12-08T11:27:02;47.70;;;26.97;;
7965;SDS011;4028;43.272;26.932;2022-12-08T11:29:31;46.70;;;28.70;;
7965;SDS011;4028;43.272;26.932;2022-12-08T11:32:06;45.27;;;29.27;;
7965;SDS011;4028;43.272;26.932;2022-12-08T11:34:38;103.97;;;30.17;;
7965;SDS011;4028;43.272;26.932;2022-12-08T11:37:06;53.53;;;29.30;;
7965;SDS011;4028;43.272;26.932;2022-12-08T11:39:40;53.30;;;33.93;;
7965;SDS011;4028;43.272;26.932;2022-12-08T11:42:11;61.77;;;29.80;;
7965;SDS011;4028;43.272;26.932;2022-12-08T11:47:42;55.30;;;30.40;;
7965;SDS011;4028;43.272;26.932;2022-12-08T11:50:47;50.70;;;29.27;;
7965;SDS011;4028;43.272;26.932;2022-12-08T11:53:05;43.70;;;26.43;;
7965;SDS011;4028;43.272;26.932;2022-12-08T11:55:43;43.10;;;27.00;;
7965;SDS011;4028;43.272;26.932;2022-12-08T11:58:26;50.40;;;28.63;;
7965;SDS011;4028;43.272;26.932;2022-12-08T12:00:59;66.17;;;30.77;;
7965;SDS011;4028;43.272;26.932;2022-12-08T12:03:29;57.70;;;31.40;;
7965;SDS011;4028;43.272;26.932;2022-12-08T12:20:36;63.83;;;33.23;;
7965;SDS011;4028;43.272;26.932;2022-12-08T12:23:08;62.60;;;32.77;;
7965;SDS011;4028;43.272;26.932;2022-12-08T12:25:57;59.43;;;31.90;;
7965;SDS011;4028;43.272;26.932;2022-12-08T12:28:25;59.80;;;34.50;;
7965;SDS011;4028;43.272;26.932;2022-12-08T12:30:59;61.97;;;34.23;;
7965;SDS011;4028;43.272;26.932;2022-12-08T12:33:30;63.40;;;30.50;;
7965;SDS011;4028;43.272;26.932;2022-12-08T12:35:56;53.27;;;30.97;;
7965;SDS011;4028;43.272;26.932;2022-12-08T12:38:33;63.77;;;34.63;;
7965;SDS011;4028;43.272;26.932;2022-12-08T12:44:21;66.83;;;35.80;;
7965;SDS011;4028;43.272;26.932;2022-12-08T12:52:02;55.00;;;27.37;;
7965;SDS011;4028;43.272;26.932;2022-12-08T12:54:29;50.47;;;28.37;;
7965;SDS011;4028;43.272;26.932;2022-12-08T12:59:44;44.23;;;23.67;;
7965;SDS011;4028;43.272;26.932;2022-12-08T13:02:33;37.83;;;23.43;;
7965;SDS011;4028;43.272;26.932;2022-12-08T13:05:46;37.87;;;22.57;;
7965;SDS011;4028;43.272;26.932;2022-12-08T13:10:34;45.17;;;26.83;;
7965;SDS011;4028;43.272;26.932;2022-12-08T13:13:14;51.70;;;27.43;;
7965;SDS011;4028;43.272;26.932;2022-12-08T13:19:12;57.00;;;27.77;;
7965;SDS011;4028;43.272;26.932;2022-12-08T13:21:13;47.20;;;28.10;;
7965;SDS011;4028;43.272;26.932;2022-12-08T13:23:46;54.00;;;25.57;;
7965;SDS011;4028;43.272;26.932;2022-12-08T13:29:28;46.00;;;25.13;;
7965;SDS011;4028;43.272;26.932;2022-12-08T13:31:58;46.33;;;26.03;;
7965;SDS011;4028;43.272;26.932;2022-12-08T13:34:47;45.23;;;24.27;;
7965;SDS011;4028;43.272;26.932;2022-12-08T13:37:27;47.40;;;27.07;;
7965;SDS011;4028;43.272;26.932;2022-12-08T13:40:08;50.00;;;28.93;;
7965;SDS011;4028;43.272;26.932;2022-12-08T13:45:44;45.07;;;25.83;;
7965;SDS011;4028;43.272;26.932;2022-12-08T13:48:26;46.33;;;26.53;;
7965;SDS011;4028;43.272;26.932;2022-12-08T13:53:38;50.00;;;25.63;;
7965;SDS011;4028;43.272;26.932;2022-12-08T13:56:07;43.50;;;25.93;;
7965;SDS011;4028;43.272;26.932;2022-12-08T13:58:36;52.33;;;28.67;;
7965;SDS011;4028;43.272;26.932;2022-12-08T14:01:18;53.43;;;29.80;;
7965;SDS011;4028;43.272;26.932;2022-12-08T14:03:53;55.30;;;29.43;;
7965;SDS011;4028;43.272;26.932;2022-12-08T14:06:36;55.53;;;25.87;;
7965;SDS011;4028;43.272;26.932;2022-12-08T14:09:04;43.03;;;24.43;;
7965;SDS011;4028;43.272;26.932;2022-12-08T14:11:36;44.07;;;24.97;;
7965;SDS011;4028;43.272;26.932;2022-12-08T14:14:07;55.87;;;29.07;;
7965;SDS011;4028;43.272;26.932;2022-12-08T14:16:39;57.53;;;28.83;;
7965;SDS011;4028;43.272;26.932;2022-12-08T14:19:19;59.03;;;30.00;;
7965;SDS011;4028;43.272;26.932;2022-12-08T14:21:56;104.67;;;26.63;;
7965;SDS011;4028;43.272;26.932;2022-12-08T14:24:39;60.47;;;26.20;;
7965;SDS011;4028;43.272;26.932;2022-12-08T14:27:10;59.33;;;26.97;;
7965;SDS011;4028;43.272;26.932;2022-12-08T14:32:20;50.93;;;26.17;;
7965;SDS011;4028;43.272;26.932;2022-12-08T14:35:29;66.90;;;28.47;;
7965;SDS011;4028;43.272;26.932;2022-12-08T14:37:49;56.00;;;28.47;;
7965;SDS011;4028;43.272;26.932;2022-12-08T14:42:51;57.27;;;28.03;;
7965;SDS011;4028;43.272;26.932;2022-12-08T14:45:29;59.50;;;28.30;;
7965;SDS011;4028;43.272;26.932;2022-12-08T14:47:54;73.13;;;26.53;;
7965;SDS011;4028;43.272;26.932;2022-12-08T14:50:39;59.50;;;26.40;;
7965;SDS011;4028;43.272;26.932;2022-12-08T14:53:15;64.83;;;26.00;;
7965;SDS011;4028;43.272;26.932;2022-12-08T14:55:42;54.40;;;27.43;;
7965;SDS011;4028;43.272;26.932;2022-12-08T14:58:17;96.10;;;25.73;;
7965;SDS011;4028;43.272;26.932;2022-12-08T15:00:49;110.97;;;27.50;;
7965;SDS011;4028;43.272;26.932;2022-12-08T15:03:18;86.10;;;30.23;;
7965;SDS011;4028;43.272;26.932;2022-12-08T15:05:49;54.97;;;27.47;;
7965;SDS011;4028;43.272;26.932;2022-12-08T15:08:16;60.03;;;28.33;;
7965;SDS011;4028;43.272;26.932;2022-12-08T15:10:41;62.00;;;30.20;;
7965;SDS011;4028;43.272;26.932;2022-12-08T15:15:48;75.93;;;29.80;;
7965;SDS011;4028;43.272;26.932;2022-12-08T15:18:20;78.70;;;31.13;;
7965;SDS011;4028;43.272;26.932;2022-12-08T15:20:54;56.67;;;27.20;;
7965;SDS011;4028;43.272;26.932;2022-12-08T15:23:27;71.10;;;28.87;;
7965;SDS011;4028;43.272;26.932;2022-12-08T15:25:58;87.17;;;27.53;;
7965;SDS011;4028;43.272;26.932;2022-12-08T15:28:25;67.03;;;27.13;;
7965;SDS011;4028;43.272;26.932;2022-12-08T15:30:52;69.93;;;26.73;;
7965;SDS011;4028;43.272;26.932;2022-12-08T15:33:20;59.30;;;26.60;;
7965;SDS011;4028;43.272;26.932;2022-12-08T15:35:46;81.17;;;26.77;;
7965;SDS011;4028;43.272;26.932;2022-12-08T15:38:18;69.03;;;26.77;;
7965;SDS011;4028;43.272;26.932;2022-12-08T15:40:44;51.73;;;26.70;;
7965;SDS011;4028;43.272;26.932;2022-12-08T15:43:10;56.93;;;28.33;;
7965;SDS011;4028;43.272;26.932;2022-12-08T15:45:36;77.20;;;29.13;;
7965;SDS011;4028;43.272;26.932;2022-12-08T15:48:02;59.70;;;28.67;;
7965;SDS011;4028;43.272;26.932;2022-12-08T15:50:27;66.63;;;31.80;;
7965;SDS011;4028;43.272;26.932;2022-12-08T15:52:53;73.00;;;29.97;;
7965;SDS011;4028;43.272;26.932;2022-12-08T15:55:18;64.00;;;31.57;;
7965;SDS011;4028;43.272;26.932;2022-12-08T15:57:48;84.53;;;35.67;;
7965;SDS011;4028;43.272;26.932;2022-12-08T16:02:49;95.70;;;37.80;;
7965;SDS011;4028;43.272;26.932;2022-12-08T16:05:15;127.60;;;38.27;;
7965;SDS011;4028;43.272;26.932;2022-12-08T16:07:40;119.63;;;36.00;;
7965;SDS011;4028;43.272;26.932;2022-12-08T16:10:06;82.67;;;35.73;;
7965;SDS011;4028;43.272;26.932;2022-12-08T16:12:34;79.93;;;37.00;;
7965;SDS011;4028;43.272;26.932;2022-12-08T16:15:23;108.93;;;39.13;;
7965;SDS011;4028;43.272;26.932;2022-12-08T16:17:48;88.47;;;39.70;;
7965;SDS011;4028;43.272;26.932;2022-12-08T16:20:14;87.57;;;36.43;;
7965;SDS011;4028;43.272;26.932;2022-12-08T16:22:42;86.70;;;31.40;;
7965;SDS011;4028;43.272;26.932;2022-12-08T16:25:08;130.37;;;31.53;;
7965;SDS011;4028;43.272;26.932;2022-12-08T16:27:35;75.37;;;31.53;;
7965;SDS011;4028;43.272;26.932;2022-12-08T16:30:02;112.97;;;49.50;;
7965;SDS011;4028;43.272;26.932;2022-12-08T16:32:28;132.87;;;56.23;;
7965;SDS011;4028;43.272;26.932;2022-12-08T16:34:54;147.00;;;63.40;;
7965;SDS011;4028;43.272;26.932;2022-12-08T16:37:20;149.00;;;60.77;;
7965;SDS011;4028;43.272;26.932;2022-12-08T16:39:47;124.87;;;58.60;;
7965;SDS011;4028;43.272;26.932;2022-12-08T16:42:27;141.33;;;60.97;;
7965;SDS011;4028;43.272;26.932;2022-12-08T16:45:15;130.10;;;55.87;;